Hovedside
METAR-TAF:

METAR-TAF

Lufthavner :

Karleby, Finland

Kronoby lufthavn

breddegrad: 63-43N, lengdegrad: 023-09E, høyde over havet: 25 m

Gjeldene værobservasjon

Denne rapporten ble laget for 33 minutter siden, klokken 20:50 UTC
Vind 4 kt fra Nord
Temperatur -18°C
Luftfuktighet 84%
Trykk 1044 hPa
Sikt 10 km eller mer
ingen skyer under 1500 m og ingen bygeskyer

METAR: EFKK 242050Z AUTO 35004KT CAVOK M18/M20 Q1044

Tid: 23:23 (21:23 UTC)

Varsel

Denne rapporten ble laget for 6 timer og 48 minutter siden, klokken 14:35 UTC
Varsel gyldig fra 24. klokken 15 UTC til 24. klokken 17 UTC
Vind 4 kt fra Nord
Sikt 10 km eller mer
ingen skyer under 1500 m og ingen bygeskyer

TAF: EFKK 241435Z 2415/2417 36004KT CAVOK

Værobservasjoner og værvarsel for over 4000 flyplasser (METAR- og TAF-rapporter).

Tilgjengelige stasjoner er representert av de røde og gule prikkene på kartet.

Hold musepekeren over prikken for å se navnet på stasjonen.

Klikk så for å se værobservasjoner og -varsler.

For å forandre kartet kan du klikke på den grønne knappen med svart kryss for å zoome inn, på den grønne knappen med strek for å zoome ut, eller på de grønne pilene for å se tilstøtende kart.


METAR-TAF: